createdAt,value
2018-10-11T00:00:52.380Z,17
2018-10-11T00:05:54.840Z,17
2018-10-11T00:10:57.319Z,17
2018-10-11T00:15:59.767Z,20
2018-10-11T00:21:02.222Z,22
2018-10-11T00:26:04.665Z,21
2018-10-11T00:31:07.143Z,21
2018-10-11T00:36:09.580Z,19
2018-10-11T00:41:12.062Z,20
2018-10-11T00:46:14.511Z,20
2018-10-11T00:51:16.965Z,20
2018-10-11T00:56:19.411Z,21
2018-10-11T01:01:21.884Z,22
2018-10-11T01:06:24.372Z,22
2018-10-11T01:11:26.812Z,18
2018-10-11T01:16:29.351Z,22
2018-10-11T01:21:31.841Z,22
2018-10-11T01:26:34.182Z,24
2018-10-11T01:31:36.641Z,22
2018-10-11T01:36:39.075Z,23
2018-10-11T01:41:41.541Z,22
2018-10-11T01:46:44.008Z,23
2018-10-11T01:51:46.464Z,22
2018-10-11T01:56:48.954Z,26
2018-10-11T02:01:51.395Z,23
2018-10-11T02:06:53.831Z,24
2018-10-11T02:11:56.288Z,21
2018-10-11T02:16:58.757Z,23
2018-10-11T02:22:01.242Z,27
2018-10-11T02:27:03.653Z,26
2018-10-11T02:32:06.287Z,23
2018-10-11T02:37:08.588Z,25
2018-10-11T02:42:11.029Z,25
2018-10-11T02:47:13.488Z,25
2018-10-11T02:52:15.960Z,18
2018-10-11T02:57:18.407Z,20
2018-10-11T03:02:20.863Z,23
2018-10-11T03:07:23.343Z,19
2018-10-11T03:12:25.784Z,17
2018-10-11T03:17:28.243Z,17
2018-10-11T03:22:30.763Z,22
2018-10-11T03:27:33.189Z,19
2018-10-11T03:32:35.623Z,16
2018-10-11T03:37:38.070Z,16
2018-10-11T03:42:40.532Z,18
2018-10-11T03:47:42.994Z,17
2018-10-11T03:52:45.443Z,17
2018-10-11T03:57:47.920Z,18
2018-10-11T04:02:50.433Z,18
2018-10-11T04:07:52.844Z,19
2018-10-11T04:12:55.356Z,20
2018-10-11T04:17:57.789Z,16
2018-10-11T04:23:00.244Z,16
2018-10-11T04:28:02.683Z,17
2018-10-11T04:33:05.180Z,16
2018-10-11T04:38:07.662Z,18
2018-10-11T04:43:10.160Z,16
2018-10-11T04:48:12.483Z,16
2018-10-11T04:53:14.963Z,18
2018-10-11T04:58:17.391Z,14
2018-10-11T05:03:19.852Z,18
2018-10-11T05:08:22.320Z,18
2018-10-11T05:13:24.782Z,19
2018-10-11T05:18:27.224Z,19
2018-10-11T05:23:29.692Z,17
2018-10-11T05:28:32.154Z,16
2018-10-11T05:33:34.607Z,16
2018-10-11T05:38:37.100Z,15
2018-10-11T05:43:39.532Z,16
2018-10-11T05:48:41.968Z,18
2018-10-11T05:53:44.432Z,16
2018-10-11T05:58:46.894Z,15
2018-10-11T06:03:49.360Z,15
2018-10-11T06:08:51.821Z,17
2018-10-11T06:13:54.261Z,15
2018-10-11T06:18:56.730Z,15
2018-10-11T06:23:59.285Z,16
2018-10-11T06:29:01.666Z,15
2018-10-11T06:34:04.106Z,16
2018-10-11T06:39:06.559Z,14
2018-10-11T06:44:09.081Z,14
2018-10-11T06:49:11.524Z,15
2018-10-11T06:54:13.927Z,14
2018-10-11T06:59:16.380Z,14
2018-10-11T07:04:18.847Z,12
2018-10-11T07:09:21.332Z,12
2018-10-11T07:14:23.788Z,14
2018-10-11T07:19:26.321Z,14
2018-10-11T07:24:28.686Z,15
2018-10-11T07:29:31.129Z,12
2018-10-11T07:34:33.708Z,13
2018-10-11T07:39:36.085Z,13
2018-10-11T07:44:38.508Z,12
2018-10-11T07:49:40.974Z,15
2018-10-11T07:54:43.443Z,15
2018-10-11T07:59:45.884Z,16
2018-10-11T08:04:48.345Z,11
2018-10-11T08:09:50.923Z,14
2018-10-11T08:14:53.270Z,16
2018-10-11T08:19:55.769Z,15
2018-10-11T08:24:58.350Z,14
2018-10-11T08:30:00.687Z,15
2018-10-11T08:35:03.102Z,14
2018-10-11T08:40:05.572Z,16
2018-10-11T08:45:08.036Z,14
2018-10-11T08:50:10.474Z,13
2018-10-11T08:55:12.935Z,13
2018-10-11T09:00:15.410Z,13
2018-10-11T09:05:17.976Z,12
2018-10-11T09:10:20.328Z,14
2018-10-11T09:15:22.807Z,12
2018-10-11T09:20:25.275Z,13
2018-10-11T09:25:27.724Z,13
2018-10-11T09:30:30.274Z,14
2018-10-11T09:35:32.632Z,11
2018-10-11T09:40:35.061Z,14
2018-10-11T09:45:37.604Z,13
2018-10-11T09:50:39.972Z,13
2018-10-11T09:55:42.448Z,16
2018-10-11T10:00:44.890Z,17
2018-10-11T10:05:47.357Z,16
2018-10-11T10:10:49.804Z,16
2018-10-11T10:15:52.280Z,16
2018-10-11T10:20:54.771Z,17
2018-10-11T10:25:57.189Z,15
2018-10-11T10:30:59.626Z,16
2018-10-11T10:36:02.128Z,16
2018-10-11T10:41:04.565Z,14
2018-10-11T10:46:07.024Z,13
2018-10-11T10:51:09.488Z,10
2018-10-11T10:56:11.936Z,15
2018-10-11T11:01:14.399Z,14
2018-10-11T11:06:16.871Z,14
2018-10-11T11:11:19.307Z,13
2018-10-11T11:16:21.774Z,13
2018-10-11T11:21:24.237Z,13
2018-10-11T11:26:26.679Z,13
2018-10-11T11:31:29.133Z,12
2018-10-11T11:36:31.581Z,13
2018-10-11T11:41:34.069Z,11
2018-10-11T11:46:36.513Z,12
2018-10-11T11:51:39.089Z,12
2018-10-11T11:56:41.416Z,13
2018-10-11T12:01:44.173Z,14
2018-10-11T12:06:46.348Z,13
2018-10-11T12:11:48.823Z,15
2018-10-11T12:16:51.263Z,14
2018-10-11T12:21:53.789Z,13
2018-10-11T12:26:56.246Z,14
2018-10-11T12:31:58.653Z,12
2018-10-11T12:37:01.132Z,12
2018-10-11T12:42:03.559Z,14
2018-10-11T12:47:06.011Z,12
2018-10-11T12:52:08.545Z,14
2018-10-11T12:57:16.186Z,12
2018-10-11T13:02:13.378Z,13
2018-10-11T13:07:15.839Z,11
2018-10-11T13:12:18.334Z,13
2018-10-11T13:17:20.752Z,13
2018-10-11T13:22:23.208Z,13
2018-10-11T13:27:25.674Z,12
2018-10-11T13:32:28.137Z,11
2018-10-11T13:37:30.656Z,12
2018-10-11T13:42:33.066Z,12
2018-10-11T13:47:41.217Z,12
2018-10-11T13:52:37.963Z,13
2018-10-11T13:57:40.433Z,11
2018-10-11T14:02:42.874Z,11
2018-10-11T14:07:45.337Z,12
2018-10-11T14:12:47.804Z,11
2018-10-11T14:17:50.415Z,12
2018-10-11T14:22:52.722Z,11
2018-10-11T14:27:55.226Z,11
2018-10-11T14:32:57.635Z,12
2018-10-11T14:38:00.105Z,9
2018-10-11T14:43:02.552Z,11
2018-10-11T14:48:05.011Z,12
2018-10-11T14:53:07.486Z,13
2018-10-11T14:58:09.926Z,12
2018-10-11T15:03:12.447Z,12
2018-10-11T15:13:17.311Z,12
2018-10-11T15:18:19.782Z,12
2018-10-11T15:23:22.244Z,11
2018-10-11T15:28:24.777Z,11
2018-10-11T15:33:27.125Z,12
2018-10-11T15:38:29.630Z,12
2018-10-11T15:43:32.162Z,11
2018-10-11T15:48:34.521Z,11
2018-10-11T15:53:37.021Z,11
2018-10-11T15:58:39.592Z,11
2018-10-11T16:03:41.910Z,11
2018-10-11T16:08:44.340Z,12
2018-10-11T16:13:46.896Z,12
2018-10-11T16:18:49.314Z,10
2018-10-11T16:23:51.722Z,11
2018-10-11T16:28:54.266Z,11
2018-10-11T16:33:56.634Z,10
2018-10-11T16:38:59.154Z,11
2018-10-11T16:44:01.569Z,11
2018-10-11T16:49:04.032Z,13
2018-10-11T16:54:06.493Z,10
2018-10-11T16:59:08.962Z,11
2018-10-11T17:04:11.440Z,11
2018-10-11T17:09:13.849Z,11
2018-10-11T17:14:16.443Z,10
2018-10-11T17:19:18.759Z,12
2018-10-11T17:24:21.222Z,12
2018-10-11T17:29:23.688Z,13
2018-10-11T17:34:26.206Z,20
2018-10-11T17:39:28.598Z,39
2018-10-11T17:44:31.073Z,22
2018-10-11T17:49:33.508Z,26
2018-10-11T17:54:35.982Z,16
2018-10-11T17:59:38.432Z,16
2018-10-11T18:04:40.881Z,18
2018-10-11T18:09:43.348Z,16
2018-10-11T18:14:45.797Z,15
2018-10-11T18:19:48.264Z,15
2018-10-11T18:24:50.707Z,14
2018-10-11T18:29:53.167Z,16
2018-10-11T18:34:55.632Z,15
2018-10-11T18:39:58.101Z,13
2018-10-11T18:45:00.663Z,14
2018-10-11T18:50:03.054Z,13
2018-10-11T18:55:05.460Z,14
2018-10-11T19:00:07.928Z,13
2018-10-11T19:05:10.382Z,13
2018-10-11T19:10:12.830Z,14
2018-10-11T19:15:15.307Z,12
2018-10-11T19:20:17.790Z,13
2018-10-11T19:25:20.208Z,14
2018-10-11T19:30:22.691Z,13
2018-10-11T19:35:25.125Z,14
2018-10-11T19:40:27.583Z,14
2018-10-11T19:45:30.044Z,14
2018-10-11T19:50:32.490Z,15
2018-10-11T19:55:35.003Z,16
2018-10-11T20:00:37.432Z,16
2018-10-11T20:05:39.879Z,16
2018-10-11T20:10:42.337Z,17
2018-10-11T20:15:44.797Z,16
2018-10-11T20:20:47.241Z,14
2018-10-11T20:25:49.736Z,16
2018-10-11T20:30:52.161Z,12
2018-10-11T20:35:54.633Z,13
2018-10-11T20:45:59.533Z,18
2018-10-11T20:51:02.067Z,18
2018-10-11T20:56:04.456Z,17
2018-10-11T21:01:06.904Z,17
2018-10-11T21:06:09.362Z,17
2018-10-11T21:11:11.832Z,16
2018-10-11T21:16:14.358Z,16
2018-10-11T21:21:16.779Z,16
2018-10-11T21:26:19.211Z,16
2018-10-11T21:31:21.662Z,16
2018-10-11T21:36:24.133Z,19
2018-10-11T21:41:26.585Z,18
2018-10-11T21:46:29.172Z,19
2018-10-11T21:51:31.482Z,17
2018-10-11T21:56:33.946Z,17
2018-10-11T22:01:36.419Z,18
2018-10-11T22:06:38.886Z,16
2018-10-11T22:11:41.313Z,18
2018-10-11T22:16:43.780Z,20
2018-10-11T22:21:46.269Z,19
2018-10-11T22:26:48.694Z,17
2018-10-11T22:31:51.194Z,18
2018-10-11T22:36:53.632Z,18
2018-10-11T22:41:56.064Z,20
2018-10-11T22:46:58.513Z,18
2018-10-11T22:52:00.991Z,19
2018-10-11T22:57:03.444Z,19
2018-10-11T23:02:05.900Z,18
2018-10-11T23:07:08.359Z,19
2018-10-11T23:12:10.819Z,18
2018-10-11T23:17:13.271Z,19
2018-10-11T23:22:15.787Z,18
2018-10-11T23:27:18.181Z,18
2018-10-11T23:32:20.901Z,19
2018-10-11T23:37:23.109Z,20
2018-10-11T23:42:25.563Z,19
2018-10-11T23:47:28.021Z,20
2018-10-11T23:52:30.472Z,19
2018-10-11T23:57:32.930Z,19
